createdAt,value
2023-03-22T00:00:27.364Z,99669.09
2023-03-22T00:02:56.620Z,99664.72
2023-03-22T00:05:25.712Z,99671.78
2023-03-22T00:07:54.135Z,99662.72
2023-03-22T00:10:22.045Z,99655.25
2023-03-22T00:12:49.696Z,99656.84
2023-03-22T00:15:17.603Z,99655.69
2023-03-22T00:17:45.626Z,99662.75
2023-03-22T00:20:13.593Z,99645.84
2023-03-22T00:22:42.607Z,99650.56
2023-03-22T00:25:10.980Z,99650.56
2023-03-22T00:27:38.728Z,99651.34
2023-03-22T00:30:08.982Z,99650.94
2023-03-22T00:32:36.974Z,99648.16
2023-03-22T00:35:05.427Z,99643.09
2023-03-22T00:37:34.298Z,99649.75
2023-03-22T00:40:04.599Z,99600.16
2023-03-22T00:42:32.276Z,99647.00
2023-03-22T00:44:59.902Z,99638.00
2023-03-22T00:47:27.604Z,99642.66
2023-03-22T00:49:55.512Z,99634.06
2023-03-22T00:52:23.290Z,99629.28
2023-03-22T00:54:51.287Z,99617.09
2023-03-22T00:57:21.212Z,99620.59
2023-03-22T00:59:49.279Z,99615.06
2023-03-22T01:02:17.402Z,99617.09
2023-03-22T01:04:46.281Z,99617.44
2023-03-22T01:07:17.566Z,99607.25
2023-03-22T01:09:45.831Z,99609.56
2023-03-22T01:12:16.109Z,99594.25
2023-03-22T01:14:45.663Z,99602.56
2023-03-22T01:17:13.438Z,99610.81
2023-03-22T01:19:41.213Z,99595.44
2023-03-22T01:22:09.514Z,99592.28
2023-03-22T01:24:37.635Z,99596.19
2023-03-22T01:27:05.787Z,99582.78
2023-03-22T01:29:35.300Z,99589.47
2023-03-22T01:32:05.176Z,99586.72
2023-03-22T01:34:33.126Z,99588.34
2023-03-22T01:37:03.002Z,99581.31
2023-03-22T01:39:32.854Z,99587.53
2023-03-22T01:42:05.501Z,99577.38
2023-03-22T01:44:33.639Z,99574.56
2023-03-22T01:47:05.090Z,99571.03
2023-03-22T01:49:35.681Z,99572.19
2023-03-22T01:52:07.996Z,99547.47
2023-03-22T01:54:46.017Z,99579.25
2023-03-22T01:57:37.404Z,99573.34
2023-03-22T02:00:10.772Z,99581.19
2023-03-22T02:03:07.066Z,99574.97
2023-03-22T02:05:41.812Z,99582.88
2023-03-22T02:08:10.563Z,99589.19
2023-03-22T02:10:53.639Z,99578.97
2023-03-22T02:13:38.860Z,99581.34
2023-03-22T02:16:31.946Z,99580.94
2023-03-22T02:19:33.371Z,99577.00
2023-03-22T02:22:22.820Z,99580.13
2023-03-22T02:25:28.359Z,99577.38
2023-03-22T02:28:14.483Z,99573.06
2023-03-22T02:31:15.553Z,99580.16
2023-03-22T02:34:17.909Z,99565.19
2023-03-22T02:37:43.262Z,99570.31
2023-03-22T02:40:16.689Z,99570.69
2023-03-22T02:42:53.109Z,99570.69
2023-03-22T02:45:29.013Z,99571.09
2023-03-22T02:48:03.584Z,99529.00
2023-03-22T02:50:39.465Z,99565.19
2023-03-22T02:53:15.906Z,99559.69
2023-03-22T02:55:49.829Z,99557.69
2023-03-22T02:58:22.225Z,99552.59
2023-03-22T03:00:55.531Z,99551.41
2023-03-22T03:03:27.086Z,99545.91
2023-03-22T03:05:59.404Z,99546.25
2023-03-22T03:08:28.371Z,99549.44
2023-03-22T03:10:58.562Z,99545.88
2023-03-22T03:13:26.666Z,99544.31
2023-03-22T03:15:59.601Z,99554.19
2023-03-22T03:18:45.667Z,99552.97
2023-03-22T03:21:24.918Z,99553.75
2023-03-22T03:24:00.240Z,99549.41
2023-03-22T03:26:39.983Z,99552.19
2023-03-22T03:29:15.853Z,99549.44
2023-03-22T03:31:50.057Z,99561.63
2023-03-22T03:34:23.088Z,99551.41
2023-03-22T03:36:57.213Z,99549.03
2023-03-22T03:39:29.566Z,99545.88
2023-03-22T03:42:01.355Z,99544.72
2023-03-22T03:44:30.984Z,99548.22
2023-03-22T03:46:59.578Z,99541.97
2023-03-22T03:49:27.712Z,99539.59
2023-03-22T03:51:56.862Z,99541.97
2023-03-22T03:54:25.188Z,99533.31
2023-03-22T03:56:54.008Z,99540.78
2023-03-22T03:59:23.260Z,99544.31
2023-03-22T04:01:53.072Z,99535.66
2023-03-22T04:04:30.531Z,99524.25
2023-03-22T04:07:04.988Z,99521.91
2023-03-22T04:09:37.603Z,99531.75
2023-03-22T04:12:15.961Z,99520.72
2023-03-22T04:14:51.470Z,99524.63
2023-03-22T04:17:25.619Z,99514.41
2023-03-22T04:19:56.414Z,99519.94
2023-03-22T04:22:26.310Z,99463.34
2023-03-22T04:24:53.993Z,99512.84
2023-03-22T04:27:24.146Z,99513.25
2023-03-22T04:30:06.204Z,99509.31
2023-03-22T04:32:52.356Z,99507.34
2023-03-22T04:35:26.911Z,99499.91
2023-03-22T04:37:56.014Z,99502.25
2023-03-22T04:40:26.388Z,99496.75
2023-03-22T04:43:03.971Z,99497.16
2023-03-22T04:46:12.711Z,99491.22
2023-03-22T04:48:47.556Z,99489.25
2023-03-22T04:51:15.583Z,99491.63
2023-03-22T04:54:03.518Z,99495.94
2023-03-22T04:56:31.468Z,99493.22
2023-03-22T04:58:59.200Z,99490.06
2023-03-22T05:01:30.091Z,99499.50
2023-03-22T05:04:09.467Z,99497.94
2023-03-22T05:06:37.169Z,99495.16
2023-03-22T05:09:12.567Z,99500.28
2023-03-22T05:11:41.125Z,99488.50
2023-03-22T05:14:24.604Z,99492.00
2023-03-22T05:16:54.056Z,99493.13
2023-03-22T05:19:22.363Z,99500.59
2023-03-22T05:21:57.818Z,99508.47
2023-03-22T05:24:30.593Z,99509.25
2023-03-22T05:27:01.048Z,99479.34
2023-03-22T05:29:28.987Z,99503.38
2023-03-22T05:32:09.784Z,99502.19
2023-03-22T05:34:37.819Z,99504.09
2023-03-22T05:37:16.782Z,99510.81
2023-03-22T05:39:56.218Z,99510.03
2023-03-22T05:42:32.371Z,99521.38
2023-03-22T05:45:01.785Z,99522.97
2023-03-22T05:47:31.260Z,99519.81
2023-03-22T05:50:15.393Z,99482.81
2023-03-22T05:52:44.641Z,99515.94
2023-03-22T05:55:23.170Z,99527.69
2023-03-22T05:57:56.521Z,99533.81
2023-03-22T06:00:26.127Z,99527.63
2023-03-22T06:03:35.460Z,99525.72
2023-03-22T06:06:20.967Z,99529.50
2023-03-22T06:09:07.290Z,99543.72
2023-03-22T06:11:44.006Z,99530.41
2023-03-22T06:14:12.151Z,99526.78
2023-03-22T06:17:01.945Z,99531.88
2023-03-22T06:19:31.202Z,99531.94
2023-03-22T06:22:02.429Z,99535.13
2023-03-22T06:24:32.242Z,99536.75
2023-03-22T06:27:00.197Z,99536.78
2023-03-22T06:29:28.998Z,99536.41
2023-03-22T06:31:59.850Z,99529.28
2023-03-22T06:34:27.818Z,99528.50
2023-03-22T06:36:57.620Z,99529.72
2023-03-22T06:39:32.779Z,99526.22
2023-03-22T06:42:00.962Z,99525.44
2023-03-22T06:44:29.345Z,99527.81
2023-03-22T06:47:23.469Z,99536.41
2023-03-22T06:50:10.814Z,99546.69
2023-03-22T06:53:18.192Z,99545.09
2023-03-22T06:55:46.053Z,99544.31
2023-03-22T06:58:20.382Z,99533.69
2023-03-22T07:00:48.066Z,99538.03
2023-03-22T07:03:17.020Z,99536.47
2023-03-22T07:05:53.461Z,99541.22
2023-03-22T07:08:22.557Z,99547.50
2023-03-22T07:10:52.010Z,99550.66
2023-03-22T07:13:23.157Z,99548.66
2023-03-22T07:15:56.890Z,99547.84
2023-03-22T07:18:41.036Z,99555.34
2023-03-22T07:21:09.969Z,99550.63
2023-03-22T07:23:42.216Z,99554.47
2023-03-22T07:26:14.388Z,99559.91
2023-03-22T07:28:46.076Z,99559.91
2023-03-22T07:31:16.099Z,99550.13
2023-03-22T07:34:04.668Z,99558.44
2023-03-22T07:36:38.699Z,99556.88
2023-03-22T07:39:11.449Z,99575.78
2023-03-22T07:41:44.077Z,99560.88
2023-03-22T07:44:20.827Z,99575.78
2023-03-22T07:47:01.942Z,99569.09
2023-03-22T07:49:37.951Z,99569.44
2023-03-22T07:52:09.849Z,99566.75
2023-03-22T07:54:40.166Z,99564.72
2023-03-22T07:57:09.560Z,99554.00
2023-03-22T07:59:48.483Z,99562.22
2023-03-22T08:02:17.087Z,99569.38
2023-03-22T08:04:52.219Z,99512.03
2023-03-22T08:07:42.255Z,99572.56
2023-03-22T08:10:13.021Z,99563.16
2023-03-22T08:12:40.893Z,99563.94
2023-03-22T08:15:17.856Z,99562.00
2023-03-22T08:17:46.231Z,99563.13
2023-03-22T08:20:20.879Z,99554.22
2023-03-22T08:22:54.866Z,99555.50
2023-03-22T08:25:30.252Z,99561.72
2023-03-22T08:28:06.682Z,99563.34
2023-03-22T08:30:34.414Z,99557.97
2023-03-22T08:33:02.174Z,99555.97
2023-03-22T08:35:30.110Z,99553.59
2023-03-22T08:37:58.744Z,99554.81
2023-03-22T08:40:36.655Z,99548.53
2023-03-22T08:43:05.296Z,99559.41
2023-03-22T08:45:33.087Z,99548.75
2023-03-22T08:48:09.045Z,99548.69
2023-03-22T08:50:56.702Z,99546.69
2023-03-22T08:53:31.550Z,99533.03
2023-03-22T08:56:22.614Z,99544.06
2023-03-22T08:59:02.024Z,99545.38
2023-03-22T09:01:55.779Z,99546.09
2023-03-22T09:04:24.120Z,99532.63
2023-03-22T09:06:51.850Z,99528.06
2023-03-22T09:09:19.609Z,99525.97
2023-03-22T09:11:51.983Z,99518.22
2023-03-22T09:14:19.669Z,99516.19
2023-03-22T09:16:48.749Z,99526.28
2023-03-22T09:19:17.080Z,99512.34
2023-03-22T09:21:45.974Z,99511.78
2023-03-22T09:24:21.601Z,99508.66
2023-03-22T09:26:55.568Z,99515.84
2023-03-22T09:29:23.917Z,99511.88
2023-03-22T09:31:51.694Z,99514.59
2023-03-22T09:34:27.054Z,99516.53
2023-03-22T09:36:57.455Z,99516.47
2023-03-22T09:39:30.362Z,99506.25
2023-03-22T09:42:06.097Z,99507.34
2023-03-22T09:44:37.512Z,99501.69
2023-03-22T09:47:14.529Z,99497.63
2023-03-22T09:49:53.420Z,99502.47
2023-03-22T09:52:22.620Z,99493.38
2023-03-22T09:54:52.746Z,99493.75
2023-03-22T09:57:28.461Z,99499.53
2023-03-22T10:00:02.088Z,99492.38
2023-03-22T10:02:50.816Z,99465.06
2023-03-22T10:05:25.129Z,99491.88
2023-03-22T10:08:15.252Z,99495.50
2023-03-22T10:10:43.237Z,99473.59
2023-03-22T10:13:19.812Z,99484.47
2023-03-22T10:15:50.065Z,99467.03
2023-03-22T10:18:20.604Z,99468.50
2023-03-22T10:20:55.432Z,99413.38
2023-03-22T10:23:30.991Z,99461.75
2023-03-22T10:26:01.254Z,99460.25
2023-03-22T10:28:35.921Z,99462.56
2023-03-22T10:31:05.750Z,99463.19
2023-03-22T10:33:39.453Z,99466.63
2023-03-22T10:36:13.742Z,99453.75
2023-03-22T10:38:47.010Z,99466.50
2023-03-22T10:41:18.451Z,99463.13
2023-03-22T10:43:51.222Z,99455.78
2023-03-22T10:46:22.414Z,99455.66
2023-03-22T10:48:54.049Z,99460.09
2023-03-22T10:51:27.321Z,99448.00
2023-03-22T10:53:58.130Z,99463.03
2023-03-22T10:56:26.876Z,99467.25
2023-03-22T10:58:57.307Z,99463.03
2023-03-22T11:01:31.432Z,99462.94
2023-03-22T11:04:01.660Z,99463.78
2023-03-22T11:06:32.845Z,99452.53
2023-03-22T11:09:03.791Z,99451.06
2023-03-22T11:11:35.415Z,99450.34
2023-03-22T11:14:08.243Z,99453.91
2023-03-22T11:16:44.419Z,99451.78
2023-03-22T11:19:18.139Z,99450.69
2023-03-22T11:21:46.243Z,99436.31
2023-03-22T11:24:15.244Z,99448.16
2023-03-22T11:26:44.906Z,99427.34
2023-03-22T11:29:17.710Z,99432.75
2023-03-22T11:31:56.276Z,99431.84
2023-03-22T11:34:27.997Z,99429.41
2023-03-22T11:36:57.443Z,99422.63
2023-03-22T11:39:28.231Z,99415.75
2023-03-22T11:42:01.108Z,99423.25
2023-03-22T11:44:35.405Z,99418.81
2023-03-22T11:47:05.215Z,99411.06
2023-03-22T11:49:40.582Z,99398.63
2023-03-22T11:52:12.265Z,99407.75
2023-03-22T11:54:42.300Z,99388.66
2023-03-22T11:57:15.480Z,99399.66
2023-03-22T11:59:51.004Z,99403.28
2023-03-22T12:02:24.699Z,99397.59
2023-03-22T12:04:57.320Z,99387.00
2023-03-22T12:07:26.112Z,99383.03
2023-03-22T12:10:00.258Z,99378.72
2023-03-22T12:12:31.809Z,99387.59
2023-03-22T12:15:05.814Z,99382.16
2023-03-22T12:17:39.481Z,99327.28
2023-03-22T12:20:20.879Z,99374.34
2023-03-22T12:22:52.653Z,99357.66
2023-03-22T12:25:22.885Z,99376.72
2023-03-22T12:27:54.678Z,99372.59
2023-03-22T12:30:26.944Z,99353.00
2023-03-22T12:33:02.550Z,99349.50
2023-03-22T12:35:34.678Z,99351.59
2023-03-22T12:38:23.579Z,99350.94
2023-03-22T12:40:54.459Z,99335.00
2023-03-22T12:43:36.681Z,99329.91
2023-03-22T12:46:07.162Z,99332.09
2023-03-22T12:48:40.753Z,99330.47
2023-03-22T12:51:10.624Z,99330.56
2023-03-22T12:53:42.450Z,99336.34
2023-03-22T12:56:14.010Z,99324.81
2023-03-22T12:58:45.400Z,99314.63
2023-03-22T13:01:23.471Z,99310.25
2023-03-22T13:03:54.807Z,99304.97
2023-03-22T13:06:33.205Z,99305.50
2023-03-22T13:09:15.532Z,99303.66
2023-03-22T13:11:44.940Z,99294.72
2023-03-22T13:14:14.430Z,99291.63
2023-03-22T13:16:52.649Z,99291.94
2023-03-22T13:19:34.097Z,99287.41
2023-03-22T13:22:16.472Z,99285.53
2023-03-22T13:25:08.347Z,99283.00
2023-03-22T13:27:38.889Z,99265.81
2023-03-22T13:30:15.610Z,99271.44
2023-03-22T13:32:54.618Z,99261.78
2023-03-22T13:35:28.175Z,99226.16
2023-03-22T13:38:03.075Z,99272.44
2023-03-22T13:40:37.380Z,99271.22
2023-03-22T13:43:13.409Z,99276.66
2023-03-22T13:46:11.593Z,99272.50
2023-03-22T13:49:17.128Z,99263.84
2023-03-22T13:51:45.711Z,99269.69
2023-03-22T13:54:19.800Z,99272.47
2023-03-22T13:56:53.244Z,99253.13
2023-03-22T13:59:27.033Z,99270.09
2023-03-22T14:01:59.447Z,99269.25
2023-03-22T14:04:37.711Z,99251.66
2023-03-22T14:07:13.200Z,99257.66
2023-03-22T14:09:46.454Z,99257.28
2023-03-22T14:12:20.615Z,99244.09
2023-03-22T14:14:53.121Z,99241.44
2023-03-22T14:17:32.829Z,99251.56
2023-03-22T14:20:05.338Z,99250.53
